This is the latest recevied weather packets stored in our database for station/object DB0FN-10. If no packets are shown the sender has not sent any weather packets the latest 10 day(s).
| Time | Temp. | Humidity | Pressure | Rain* | Wind** | Luminosity | Snow |
|---|---|---|---|---|---|---|---|
| 1777698970 | 17.22° C | 41% | 1026.4 hPa | - | - | - | - |
| 1777698070 | 17.22° C | 38% | 1026.3 hPa | - | - | - | - |
| 1777697170 | 17.22° C | 38% | 1026.2 hPa | - | - | - | - |
| 1777696270 | 17.22° C | 35% | 1026.1 hPa | - | - | - | - |
| 1777695370 | 17.22° C | 37% | 1026.2 hPa | - | - | - | - |
| 1777694470 | 17.22° C | 36% | 1026 hPa | - | - | - | - |
| 1777693570 | 17.22° C | 35% | 1026 hPa | - | - | - | - |
| 1777692670 | 17.22° C | 35% | 1026 hPa | - | - | - | - |
| 1777691770 | 16.67° C | 36% | 1026 hPa | - | - | - | - |
| 1777690870 | 17.78° C | 34% | 1026 hPa | - | - | - | - |
| 1777689970 | 17.78° C | 34% | 1026 hPa | - | - | - | - |
| 1777689070 | 17.78° C | 33% | 1026.2 hPa | - | - | - | - |
| 1777688170 | 17.78° C | 33% | 1026.1 hPa | - | - | - | - |
| 1777687269 | 17.78° C | 34% | 1026.1 hPa | - | - | - | - |
| 1777686369 | 18.33° C | 32% | 1026.1 hPa | - | - | - | - |
| 1777685469 | 17.22° C | 34% | 1026.3 hPa | - | - | - | - |
| 1777684569 | 17.22° C | 34% | 1026.3 hPa | - | - | - | - |
| 1777683669 | 17.78° C | 33% | 1026.3 hPa | - | - | - | - |
| 1777682769 | 17.78° C | 33% | 1026.3 hPa | - | - | - | - |
| 1777681869 | 16.67° C | 34% | 1026.5 hPa | - | - | - | - |
| 1777680969 | 16.67° C | 35% | 1026.5 hPa | - | - | - | - |
| 1777680069 | 16.67° C | 36% | 1026.4 hPa | - | - | - | - |
| 1777679169 | 18.33° C | 32% | 1026.5 hPa | - | - | - | - |
| 1777678269 | 17.22° C | 34% | 1026.6 hPa | - | - | - | - |
| 1777677369 | 18.33° C | 32% | 1026.5 hPa | - | - | - | - |
* Rain since midnight (hover to see other rain measurements)
** Current wind speed in m/s (hover to see current wind gust speed)